Terminal Aerodrome Forecast
Issued by NWS

Home | Current Version | Previous Version | Text Only | Print | Product List | Glossary On
Versions: 1 2 3 4 5 6 7 8 9 10 11 12 13 14 15 16 17 18 19 20 21 22 23 24 25 26 27 28 29 30 31 32 33 34 35
000
FTUS46 KLOX 100900 AAA
TAFLAX
TAF AMD
KLAX 100942Z 1010/1112 25006KT P6SM OVC013
     FM101800 26007KT P6SM SCT020
     FM102100 26014KT P6SM FEW020
     FM110100 26010KT P6SM BKN015
     FM110700 VRB03KT P6SM OVC015=

USA.gov is the U.S. government's official web portal to all federal, state and local government web resources and services.